createdAt,value
2023-02-06T00:02:00.337Z,3.53
2023-02-06T00:04:30.594Z,8.52
2023-02-06T00:07:01.426Z,3.72
2023-02-06T00:09:31.783Z,4.05
2023-02-06T00:11:59.313Z,5.80
2023-02-06T00:14:26.995Z,3.03
2023-02-06T00:16:54.489Z,8.82
2023-02-06T00:19:24.686Z,5.03
2023-02-06T00:21:55.287Z,5.95
2023-02-06T00:24:22.918Z,7.78
2023-02-06T00:26:50.608Z,2.75
2023-02-06T00:29:22.974Z,6.28
2023-02-06T00:31:59.449Z,3.95
2023-02-06T00:34:40.545Z,3.22
2023-02-06T00:37:13.819Z,7.07
2023-02-06T00:39:45.416Z,3.80
2023-02-06T00:42:21.725Z,4.63
2023-02-06T00:45:13.252Z,2.28
2023-02-06T00:48:23.490Z,7.97
2023-02-06T00:51:02.677Z,5.03
2023-02-06T00:53:54.012Z,6.93
2023-02-06T00:56:23.773Z,3.53
2023-02-06T00:58:52.997Z,4.55
2023-02-06T01:01:33.084Z,4.20
2023-02-06T01:12:04.336Z,3.33
2023-02-06T01:14:31.902Z,3.03
2023-02-06T01:16:59.475Z,4.72
2023-02-06T01:19:27.118Z,4.65
2023-02-06T01:22:01.326Z,2.55
2023-02-06T01:24:29.104Z,2.87
2023-02-06T01:26:56.713Z,4.10
2023-02-06T01:29:24.653Z,6.47
2023-02-06T01:31:52.286Z,3.42
2023-02-06T01:34:20.160Z,3.00
2023-02-06T01:36:47.740Z,8.73
2023-02-06T01:39:15.383Z,6.78
2023-02-06T01:41:43.066Z,2.97
2023-02-06T01:44:24.267Z,3.28
2023-02-06T01:46:59.259Z,3.65
2023-02-06T01:49:31.329Z,3.05
2023-02-06T01:52:15.845Z,4.93
2023-02-06T01:54:57.144Z,2.50
2023-02-06T01:57:27.172Z,8.15
2023-02-06T02:00:00.716Z,5.82
2023-02-06T02:02:29.675Z,2.43
2023-02-06T02:04:57.948Z,2.83
2023-02-06T02:07:32.485Z,4.53
2023-02-06T02:12:30.451Z,2.70
2023-02-06T02:15:01.753Z,4.00
2023-02-06T02:18:02.869Z,3.53
2023-02-06T02:20:43.208Z,4.40
2023-02-06T02:23:33.017Z,2.65
2023-02-06T02:26:12.581Z,3.90
2023-02-06T02:28:45.959Z,3.78
2023-02-06T02:31:53.736Z,5.55
2023-02-06T02:34:57.965Z,4.25
2023-02-06T02:37:59.931Z,1.70
2023-02-06T02:40:40.310Z,5.00
2023-02-06T02:43:45.146Z,11.10
2023-02-06T02:46:32.456Z,6.85
2023-02-06T02:51:58.894Z,3.53
2023-02-06T02:54:29.420Z,5.68
2023-02-06T02:57:15.706Z,2.22
2023-02-06T02:59:48.636Z,3.90
2023-02-06T03:02:36.883Z,3.33
2023-02-06T03:05:13.107Z,4.13
2023-02-06T03:11:41.006Z,3.92
2023-02-06T03:14:50.364Z,8.13
2023-02-06T03:18:00.548Z,3.67
2023-02-06T03:20:45.496Z,6.03
2023-02-06T03:23:18.655Z,2.90
2023-02-06T03:26:03.839Z,2.13
2023-02-06T03:28:44.914Z,3.20
2023-02-06T03:31:27.700Z,2.50
2023-02-06T03:34:43.654Z,3.13
2023-02-06T03:37:30.042Z,2.45
2023-02-06T03:40:01.105Z,3.50
2023-02-06T03:42:30.940Z,6.20
2023-02-06T03:45:06.942Z,6.18
2023-02-06T03:47:41.984Z,6.95
2023-02-06T03:50:10.930Z,1.90
2023-02-06T03:52:48.337Z,3.38
2023-02-06T03:55:22.910Z,6.80
2023-02-06T03:58:08.780Z,3.10
2023-02-06T04:00:39.466Z,4.45
2023-02-06T04:03:08.537Z,3.15
2023-02-06T04:05:37.274Z,1.73
2023-02-06T04:08:05.579Z,2.83
2023-02-06T04:10:35.963Z,1.92
2023-02-06T04:13:03.862Z,2.63
2023-02-06T04:15:38.209Z,2.90
2023-02-06T04:18:06.349Z,2.70
2023-02-06T04:20:34.553Z,2.40
2023-02-06T04:23:02.303Z,5.35
2023-02-06T04:25:37.186Z,5.90
2023-02-06T04:28:07.510Z,2.28
2023-02-06T04:30:35.202Z,3.20
2023-02-06T04:33:05.897Z,2.08
2023-02-06T04:35:33.592Z,3.20
2023-02-06T04:38:01.296Z,5.00
2023-02-06T04:40:28.955Z,4.30
2023-02-06T04:42:56.705Z,2.17
2023-02-06T04:45:30.340Z,11.00
2023-02-06T04:48:01.670Z,5.30
2023-02-06T04:50:31.601Z,4.53
2023-02-06T04:53:01.541Z,4.30
2023-02-06T04:55:32.848Z,8.48
2023-02-06T04:58:03.084Z,6.13
2023-02-06T05:00:33.883Z,4.15
2023-02-06T05:03:09.460Z,3.60
2023-02-06T05:05:42.874Z,5.03
2023-02-06T05:08:16.529Z,7.55
2023-02-06T05:10:44.135Z,6.18
2023-02-06T05:13:12.306Z,4.00
2023-02-06T05:15:43.621Z,6.72
2023-02-06T05:18:11.187Z,7.50
2023-02-06T05:20:38.994Z,5.82
2023-02-06T05:23:11.724Z,4.50
2023-02-06T05:25:42.969Z,3.72
2023-02-06T05:28:11.216Z,2.00
2023-02-06T05:30:38.886Z,3.88
2023-02-06T05:33:08.707Z,5.25
2023-02-06T05:35:38.725Z,3.88
2023-02-06T05:38:06.385Z,4.90
2023-02-06T05:40:34.015Z,4.45
2023-02-06T05:43:02.424Z,4.20
2023-02-06T05:45:35.777Z,4.60
2023-02-06T05:48:09.165Z,6.82
2023-02-06T05:50:41.274Z,4.65
2023-02-06T05:53:17.371Z,3.78
2023-02-06T05:55:45.111Z,3.97
2023-02-06T05:58:14.347Z,5.85
2023-02-06T06:00:42.342Z,5.25
2023-02-06T06:06:07.048Z,7.05
2023-02-06T06:08:38.920Z,6.00
2023-02-06T06:11:08.517Z,8.50
2023-02-06T06:13:36.878Z,6.25
2023-02-06T06:16:09.589Z,9.43
2023-02-06T06:18:42.999Z,5.15
2023-02-06T06:21:13.557Z,3.45
2023-02-06T06:23:47.540Z,10.70
2023-02-06T06:26:31.996Z,4.25
2023-02-06T06:29:00.991Z,5.53
2023-02-06T06:31:29.421Z,3.97
2023-02-06T06:33:58.637Z,8.43
2023-02-06T06:36:32.481Z,5.03
2023-02-06T06:43:17.147Z,5.10
2023-02-06T06:49:06.166Z,9.88
2023-02-06T06:51:33.741Z,7.05
2023-02-06T06:54:10.149Z,9.13
2023-02-06T06:56:37.908Z,6.38
2023-02-06T06:59:05.646Z,9.13
2023-02-06T07:01:33.338Z,7.65
2023-02-06T07:04:01.218Z,8.57
2023-02-06T07:06:37.410Z,7.38
2023-02-06T07:09:04.984Z,9.55
2023-02-06T07:11:32.892Z,5.53
2023-02-06T07:14:00.557Z,6.60
2023-02-06T07:16:28.366Z,8.80
2023-02-06T07:18:57.390Z,7.80
2023-02-06T07:21:25.040Z,10.32
2023-02-06T07:23:52.596Z,6.78
2023-02-06T07:26:20.153Z,7.95
2023-02-06T07:28:49.880Z,10.80
2023-02-06T07:31:17.703Z,8.65
2023-02-06T07:33:46.004Z,10.00
2023-02-06T07:36:16.404Z,10.82
2023-02-06T07:38:46.303Z,6.85
2023-02-06T07:41:14.031Z,4.45
2023-02-06T07:43:41.749Z,8.48
2023-02-06T07:46:09.340Z,9.05
2023-02-06T07:48:37.131Z,10.30
2023-02-06T07:51:07.061Z,20.20
2023-02-06T07:53:40.674Z,14.55
2023-02-06T07:56:17.179Z,13.75
2023-02-06T07:58:45.188Z,15.65
2023-02-06T08:01:12.781Z,17.98
2023-02-06T08:03:41.206Z,13.90
2023-02-06T08:06:10.899Z,12.85
2023-02-06T08:08:39.539Z,14.90
2023-02-06T08:11:08.723Z,10.18
2023-02-06T08:13:36.408Z,9.55
2023-02-06T08:16:05.915Z,9.55
2023-02-06T08:18:33.437Z,13.55
2023-02-06T08:21:02.925Z,9.95
2023-02-06T08:23:30.794Z,10.20
2023-02-06T08:26:02.941Z,11.45
2023-02-06T08:28:31.121Z,12.48
2023-02-06T08:30:58.773Z,12.07
2023-02-06T08:33:26.276Z,11.30
2023-02-06T08:39:46.732Z,16.83
2023-02-06T08:42:20.635Z,11.93
2023-02-06T08:44:49.355Z,15.32
2023-02-06T08:47:19.609Z,10.82
2023-02-06T08:49:50.818Z,13.73
2023-02-06T08:52:18.707Z,15.90
2023-02-06T08:54:46.254Z,12.13
2023-02-06T08:57:19.053Z,12.70
2023-02-06T08:59:46.808Z,11.40
2023-02-06T09:02:14.585Z,13.20
2023-02-06T09:04:43.496Z,14.85
2023-02-06T09:07:11.179Z,9.07
2023-02-06T09:09:47.253Z,9.27
2023-02-06T09:13:04.475Z,12.27
2023-02-06T09:15:39.278Z,10.07
2023-02-06T09:18:07.212Z,7.25
2023-02-06T09:20:35.128Z,10.63
2023-02-06T09:23:08.585Z,9.57
2023-02-06T09:25:53.296Z,8.23
2023-02-06T09:31:47.688Z,8.60
2023-02-06T09:34:15.581Z,6.30
2023-02-06T09:36:43.163Z,12.23
2023-02-06T09:39:10.708Z,11.48
2023-02-06T09:41:41.136Z,8.10
2023-02-06T09:44:53.547Z,9.45
2023-02-06T09:48:04.846Z,10.07
2023-02-06T09:50:58.202Z,8.70
2023-02-06T09:53:30.644Z,9.43
2023-02-06T09:56:49.262Z,8.90
2023-02-06T10:02:24.967Z,7.05
2023-02-06T10:05:12.565Z,10.95
2023-02-06T10:07:53.029Z,5.43
2023-02-06T10:10:35.679Z,7.28
2023-02-06T10:13:33.664Z,8.23
2023-02-06T10:16:34.041Z,8.70
2023-02-06T10:19:10.306Z,9.75
2023-02-06T10:29:15.905Z,7.53
2023-02-06T10:31:50.268Z,8.77
2023-02-06T10:34:52.600Z,9.33
2023-02-06T10:38:06.452Z,8.63
2023-02-06T10:41:25.039Z,8.77
2023-02-06T10:48:48.913Z,8.68
2023-02-06T10:51:27.642Z,10.13
2023-02-06T10:54:06.818Z,5.95
2023-02-06T10:56:45.391Z,8.40
2023-02-06T10:59:39.196Z,7.45
2023-02-06T11:03:07.415Z,14.60
2023-02-06T11:05:48.426Z,6.43
2023-02-06T11:13:54.119Z,8.18
2023-02-06T11:16:37.762Z,6.57
2023-02-06T11:43:54.462Z,9.38
2023-02-06T11:47:10.015Z,10.80
2023-02-06T11:53:27.291Z,7.55
2023-02-06T11:57:07.392Z,6.35
2023-02-06T12:08:21.101Z,7.63
2023-02-06T12:19:41.505Z,10.38
2023-02-06T12:26:28.185Z,10.95
2023-02-06T12:42:21.316Z,11.82
2023-02-06T12:45:26.804Z,6.38
2023-02-06T12:48:04.046Z,11.10
2023-02-06T12:54:41.876Z,10.50
2023-02-06T12:57:56.447Z,6.38
2023-02-06T13:15:36.042Z,6.05
2023-02-06T13:18:42.376Z,4.80
2023-02-06T13:22:13.525Z,7.10
2023-02-06T13:24:46.979Z,10.60
2023-02-06T13:27:31.996Z,8.98
2023-02-06T13:30:53.007Z,6.57
2023-02-06T13:37:41.358Z,7.80
2023-02-06T13:40:24.135Z,6.95
2023-02-06T13:43:10.311Z,7.05
2023-02-06T13:45:44.996Z,8.20
2023-02-06T13:48:33.572Z,6.97
2023-02-06T13:51:05.536Z,6.22
2023-02-06T13:54:05.896Z,9.32
2023-02-06T13:56:57.391Z,7.80
2023-02-06T14:00:23.030Z,8.68
2023-02-06T14:06:34.534Z,11.15
2023-02-06T14:13:39.587Z,6.95
2023-02-06T14:16:45.337Z,7.30
2023-02-06T15:10:13.131Z,7.10
2023-02-06T15:13:08.846Z,8.52
2023-02-06T15:16:32.199Z,6.32
2023-02-06T15:19:51.706Z,7.18
2023-02-06T15:22:47.829Z,10.13
2023-02-06T15:26:00.338Z,8.93
2023-02-06T15:36:38.956Z,8.48
2023-02-06T15:45:44.990Z,16.65
2023-02-06T15:49:09.163Z,9.27
2023-02-06T15:54:52.212Z,9.48
2023-02-06T15:57:53.678Z,8.02
2023-02-06T16:01:15.716Z,9.27
2023-02-06T16:04:09.213Z,9.07
2023-02-06T16:06:40.240Z,6.75
2023-02-06T16:09:50.843Z,8.52
2023-02-06T16:12:41.945Z,10.40
2023-02-06T16:21:43.778Z,9.57
2023-02-06T16:24:28.406Z,8.13
2023-02-06T16:30:35.001Z,9.43
2023-02-06T16:33:48.758Z,13.68
2023-02-06T16:36:19.482Z,18.25
2023-02-06T16:39:03.247Z,9.93
2023-02-06T16:41:34.240Z,10.05
2023-02-06T16:44:12.691Z,15.00
2023-02-06T16:46:55.524Z,10.68
2023-02-06T16:49:59.307Z,8.55
2023-02-06T16:52:35.973Z,10.50
2023-02-06T16:55:37.360Z,9.02
2023-02-06T16:58:21.106Z,13.75
2023-02-06T17:01:06.410Z,13.80
2023-02-06T17:03:53.146Z,11.38
2023-02-06T17:06:45.976Z,12.70
2023-02-06T17:09:23.909Z,19.17
2023-02-06T17:12:14.998Z,16.58
2023-02-06T17:15:19.193Z,12.63
2023-02-06T17:18:01.602Z,13.40
2023-02-06T17:20:45.832Z,13.05
2023-02-06T17:23:17.422Z,11.98
2023-02-06T17:25:46.837Z,18.63
2023-02-06T17:28:23.844Z,13.38
2023-02-06T17:30:54.385Z,15.90
2023-02-06T17:33:24.436Z,13.73
2023-02-06T17:36:01.023Z,13.30
2023-02-06T17:38:37.229Z,14.90
2023-02-06T17:41:16.602Z,24.60
2023-02-06T17:43:56.472Z,20.45
2023-02-06T17:46:24.623Z,17.45
2023-02-06T17:48:52.317Z,13.98
2023-02-06T18:17:10.279Z,14.40
2023-02-06T18:19:44.459Z,18.47
2023-02-06T18:22:23.603Z,17.08
2023-02-06T18:25:03.525Z,19.13
2023-02-06T18:27:39.542Z,17.67
2023-02-06T18:30:12.978Z,18.73
2023-02-06T18:32:41.100Z,11.63
2023-02-06T18:35:10.348Z,13.93
2023-02-06T18:37:40.886Z,14.90
2023-02-06T18:40:12.138Z,19.45
2023-02-06T18:42:52.244Z,17.65
2023-02-06T18:45:22.504Z,12.75
2023-02-06T18:47:53.300Z,14.43
2023-02-06T18:50:41.402Z,13.95
2023-02-06T18:53:10.224Z,16.52
2023-02-06T18:55:41.410Z,15.80
2023-02-06T18:58:10.329Z,15.27
2023-02-06T19:00:42.249Z,14.23
2023-02-06T19:03:10.589Z,15.85
2023-02-06T19:05:39.072Z,14.35
2023-02-06T19:08:07.656Z,14.07
2023-02-06T19:10:35.869Z,14.85
2023-02-06T19:13:06.483Z,14.93
2023-02-06T19:15:38.416Z,20.73
2023-02-06T19:18:11.068Z,17.88
2023-02-06T19:20:41.851Z,14.68
2023-02-06T19:23:09.662Z,12.77
2023-02-06T19:25:40.584Z,13.45
2023-02-06T19:34:42.136Z,18.88
2023-02-06T19:44:13.566Z,21.55
2023-02-06T19:47:10.756Z,19.27
2023-02-06T19:49:55.028Z,22.42
2023-02-06T19:56:07.855Z,20.13
2023-02-06T19:58:47.598Z,15.23
2023-02-06T20:06:15.907Z,19.92
2023-02-06T20:09:42.393Z,16.73
2023-02-06T20:12:32.234Z,19.75
2023-02-06T20:32:44.659Z,17.92
2023-02-06T20:35:15.950Z,15.77
2023-02-06T20:38:01.582Z,9.27
2023-02-06T20:40:44.735Z,19.60
2023-02-06T20:43:21.177Z,20.85
2023-02-06T20:45:52.661Z,21.50
2023-02-06T20:48:23.773Z,19.27
2023-02-06T20:59:52.654Z,17.77
2023-02-06T21:02:29.417Z,18.15
2023-02-06T21:05:39.504Z,14.02
2023-02-06T21:17:19.999Z,15.20
2023-02-06T21:20:13.896Z,16.67
2023-02-06T21:23:01.388Z,17.40
2023-02-06T21:25:34.375Z,20.50
2023-02-06T21:28:23.296Z,15.95
2023-02-06T21:34:05.604Z,13.07
2023-02-06T21:40:07.761Z,15.75
2023-02-06T21:42:37.768Z,10.50
2023-02-06T21:45:24.537Z,18.77
2023-02-06T21:48:10.791Z,16.05
2023-02-06T21:50:52.182Z,11.25
2023-02-06T21:53:33.857Z,13.88
2023-02-06T21:56:31.266Z,13.52
2023-02-06T21:59:42.653Z,14.50
2023-02-06T22:03:01.634Z,17.83
2023-02-06T22:05:43.590Z,18.52
2023-02-06T22:08:24.080Z,18.10
2023-02-06T22:11:31.469Z,21.70
2023-02-06T22:14:13.435Z,25.65
2023-02-06T22:16:54.980Z,19.45
2023-02-06T22:19:40.990Z,18.58
2023-02-06T22:45:27.478Z,15.40
2023-02-06T23:30:04.069Z,21.63
2023-02-06T23:33:24.217Z,16.83
2023-02-06T23:40:00.656Z,13.52
